Boise, ID (83732)

2:08 AM MDT on October 21, 2014 (GMT -0600)
Bridgeview | Change Station
CLOSE
Current Station
Personal Weather Station
Location: Boise, ID
Elevation: 2789 ft
Nearby Weather Stations
Active Advisory: Special Statement

Elev 2789 ft 43.56 °N, 116.29 °W | Updated 8 minutes ago

Overcast
Overcast
56.2 °F
Feels Like 56.2 °F
N
6.0
Wind Variable Wind from NW
Gusts 13.0 mph

Today
High -- | Low -- °F
--% Chance of Precip.
Yesterday
High -- | Low -- °F
Precip. -- in
8:06 AM 6:52 PM
Waning Crescent, 7% visible
Pressure 29.81 in
Visibility 10.0 miles
Clouds Mostly Cloudy 7000 ft
Overcast 9000 ft
Dew Point 44 °F
Humidity 63%
Rainfall -999.00 in
Snow Depth Not available.
UV 0 out of 12
Pollen 4.00 out of 12
Ozone Good
PM2.5 Moderate
Flu Activity Sporadic
METAR KBOI 210753Z 34011KT 10SM BKN070 OVC090 13/07 A2987 RMK AO2 RAE06 SLP095 P0001 T01280072

More Conditions Fewer Conditions

Pressure 29.81 in
Visibility 10.0 miles
Clouds Mostly Cloudy 7000 ft
Overcast 9000 ft
Dew Point 44 °F
Humidity 63%
Rainfall -999.00 in
Snow Depth Not available.
UV 0 out of 12
Pollen 4.00 out of 12
Ozone Good
PM2.5 Moderate
Flu Activity Sporadic
METAR KBOI 210753Z 34011KT 10SM BKN070 OVC090 13/07 A2987 RMK AO2 RAE06 SLP095 P0001 T01280072

More Conditions Fewer Conditions

10-Day Weather Forecast

Almanac

Astronomy

Oct. 21, 2014 Rise Set
Actual Time 8:06 AM MDT 6:52 PM MDT
Civil Twilight 7:37 AM MDT 7:21 PM MDT
Nautical Twilight 7:04 AM MDT 7:54 PM MDT
Astronomical Twilight 6:31 AM MDT 8:27 PM MDT
Moon 5:51 AM MDT 5:51 PM MDT
Length of Visible Light 11h 43m
Length of Day
10h 45m
Tomorrow will be 2m 49s shorter.
Waning Crescent, 7% of the Moon is Illuminated
Today
Waning Crescent
Oct 23
New
Oct 30
First Quarter
Nov 6
Full
Nov 14
Last Quarter

Today's Extremes

State Highs State Lows

Community

WunderPhotos

Upload Photos

1,763,619 photos uploaded!

Nearby

Air Quality

  Air Quality AQ Index Pollutant
Yesterday Good
PM2.5
Yesterday Good
OZONE
Current Moderate
PM2.5
Current Good
OZONE
Tuesday Good
PM2.5
Tuesday Good
OZONE
Wednesday Good
PM2.5

Snow Depth

Station Depth Elevation
Bogus Basin 0 in 6340 ft
Trinity Mountain 1 in 7770 ft
Camas Creek Divide 0 in 5710 ft
Jackson Peak 1 in 7070 ft
Atlanta Summit 0 in 7580 ft

Earthquake Activity

City Distance Mag. Time & Date
No recent earthquake activity has been reported nearby.
Minimum magnitude displayed is 2.5.

Coastal Water Temperatures

Place Temperature
No Stations Reporting

Nearby Weather Stations